Time;durP1;ratioP1;P1;durP2;ratioP2;P2;SDS_P1;SDS_P2;PMS_P1;PMS_P2;Temp;Humidity;BMP_temperature;BMP_pressure;BME280_temperature;BME280_humidity;BME280_pressure;Samples;Min_cycle;Max_cycle;Signal;HPM_P1;HPM_P2
2023/05/24 00:01:24;;;;;;;15.32;4.50;;;10.00;99.90;;;;;;5033350;28;20041;-64
2023/05/24 00:03:53;;;;;;;17.67;5.03;;;10.00;99.90;;;;;;5035263;28;20098;-65
2023/05/24 00:06:19;;;;;;;19.70;5.20;;;9.90;99.90;;;;;;5036856;28;20037;-64
2023/05/24 00:08:45;;;;;;;17.23;5.00;;;9.90;99.90;;;;;;5036366;28;20056;-62
2023/05/24 00:11:11;;;;;;;20.70;5.55;;;9.90;99.90;;;;;;5036792;28;20052;-64
2023/05/24 00:13:37;;;;;;;21.10;5.43;;;9.90;99.90;;;;;;5033655;28;20045;-61
2023/05/24 00:16:03;;;;;;;16.13;5.35;;;9.90;99.90;;;;;;5029332;28;20045;-64
2023/05/24 00:18:32;;;;;;;16.35;5.47;;;9.90;99.90;;;;;;5030909;28;20080;-62
2023/05/24 00:20:58;;;;;;;18.77;6.25;;;9.90;99.90;;;;;;5028665;28;20119;-64
2023/05/24 00:23:24;;;;;;;18.67;5.50;;;9.90;99.90;;;;;;5031674;28;20084;-64
2023/05/24 00:25:50;;;;;;;16.15;5.53;;;10.00;99.90;;;;;;5028667;28;20053;-64
2023/05/24 00:28:16;;;;;;;18.45;5.40;;;9.90;99.90;;;;;;5037342;28;20053;-64
2023/05/24 00:30:42;;;;;;;19.88;6.15;;;9.90;99.90;;;;;;5029705;28;20490;-64
2023/05/24 00:33:08;;;;;;;19.25;6.03;;;9.90;99.90;;;;;;5030130;28;20037;-64
2023/05/24 00:35:33;;;;;;;17.00;5.60;;;10.00;99.90;;;;;;5024785;28;20550;-62
2023/05/24 00:37:59;;;;;;;22.88;6.97;;;10.00;99.90;;;;;;5031635;28;20045;-64
2023/05/24 00:40:25;;;;;;;20.35;5.93;;;10.00;99.90;;;;;;5031142;28;20077;-64
2023/05/24 00:42:50;;;;;;;17.75;5.65;;;10.00;99.90;;;;;;5039660;28;20037;-63
2023/05/24 00:45:16;;;;;;;22.08;5.90;;;10.10;99.90;;;;;;5032722;28;20368;-63
2023/05/24 00:47:42;;;;;;;18.95;5.95;;;10.10;99.90;;;;;;5031962;28;20542;-64
2023/05/24 00:50:11;;;;;;;20.27;5.80;;;10.10;99.90;;;;;;5035515;28;20079;-62
2023/05/24 00:52:38;;;;;;;16.77;5.68;;;10.10;99.90;;;;;;5043599;28;20128;-64
2023/05/24 00:55:05;;;;;;;22.30;6.72;;;10.10;99.90;;;;;;5025503;28;20045;-64
2023/05/24 00:57:31;;;;;;;22.60;5.80;;;10.10;99.90;;;;;;5042537;28;20041;-64
2023/05/24 00:59:58;;;;;;;20.90;5.93;;;10.20;99.90;;;;;;5034928;28;20101;-64
2023/05/24 01:02:24;;;;;;;19.48;6.22;;;10.10;99.90;;;;;;5035714;28;20037;-64
2023/05/24 01:04:49;;;;;;;22.55;6.15;;;10.20;99.90;;;;;;5028549;28;20099;-64
2023/05/24 01:07:25;;;;;;;18.60;5.43;;;10.20;99.90;;;;;;5036612;28;20040;-64
2023/05/24 01:10:13;;;;;;;20.75;5.72;;;10.30;99.90;;;;;;5028806;28;20072;-64
2023/05/24 01:12:52;;;;;;;22.20;5.88;;;10.20;99.90;;;;;;5039191;28;20097;-64
2023/05/24 01:15:30;;;;;;;22.73;6.28;;;10.20;99.90;;;;;;5029104;28;20489;-64
2023/05/24 01:18:04;;;;;;;19.85;5.88;;;10.20;99.90;;;;;;5040755;28;20394;-64
2023/05/24 01:20:32;;;;;;;20.80;5.93;;;10.30;99.90;;;;;;5032137;28;20496;-64
2023/05/24 01:23:34;;;;;;;19.90;5.85;;;10.30;99.90;;;;;;5045721;28;20403;-64
2023/05/24 01:26:06;;;;;;;18.45;5.78;;;10.30;99.90;;;;;;5040881;28;20121;-64
2023/05/24 01:28:34;;;;;;;23.00;5.90;;;10.30;99.90;;;;;;5038246;28;20112;-64
2023/05/24 01:31:00;;;;;;;18.13;5.72;;;10.30;99.90;;;;;;5035677;28;20412;-63
2023/05/24 01:33:26;;;;;;;21.73;6.35;;;10.30;99.90;;;;;;5034469;28;20041;-64
2023/05/24 01:35:51;;;;;;;22.00;6.18;;;10.30;99.90;;;;;;5031377;28;20033;-64
2023/05/24 01:38:17;;;;;;;19.42;5.78;;;10.30;99.90;;;;;;5037524;28;20464;-62
2023/05/24 01:40:45;;;;;;;22.30;6.15;;;10.30;99.90;;;;;;5030835;28;20041;-62
2023/05/24 01:43:29;;;;;;;20.15;5.97;;;10.20;99.90;;;;;;5039999;28;20068;-63
2023/05/24 01:46:16;;;;;;;25.27;6.20;;;10.30;99.90;;;;;;5043434;28;20079;-64
2023/05/24 01:48:47;;;;;;;23.17;5.80;;;10.20;99.90;;;;;;5046654;28;20506;-61
2023/05/24 01:51:17;;;;;;;19.30;5.88;;;10.20;99.90;;;;;;5031156;28;20038;-64
2023/05/24 01:53:49;;;;;;;18.42;6.05;;;10.20;99.90;;;;;;5039486;28;20049;-64
2023/05/24 01:56:16;;;;;;;22.23;5.90;;;10.20;99.90;;;;;;5041676;28;20056;-64
2023/05/24 01:58:44;;;;;;;18.13;5.60;;;10.10;99.90;;;;;;5026415;28;20041;-63
2023/05/24 02:01:12;;;;;;;27.55;6.75;;;10.10;99.90;;;;;;5031930;28;20052;-61
2023/05/24 02:03:38;;;;;;;23.80;6.50;;;10.10;99.90;;;;;;5025942;28;20164;-64
2023/05/24 02:06:04;;;;;;;22.33;6.40;;;10.10;99.90;;;;;;5026489;28;20116;-64
2023/05/24 02:08:29;;;;;;;23.65;6.35;;;10.10;99.90;;;;;;5026692;28;20484;-64
2023/05/24 02:10:55;;;;;;;21.67;6.65;;;10.70;99.90;;;;;;5031692;28;20033;-64
2023/05/24 02:13:21;;;;;;;22.08;6.30;;;10.00;99.90;;;;;;5034627;28;20044;-64
2023/05/24 02:15:46;;;;;;;21.95;6.18;;;10.00;99.90;;;;;;5027299;28;20542;-63
2023/05/24 02:18:12;;;;;;;24.75;6.30;;;10.00;99.90;;;;;;5041733;28;20506;-64
2023/05/24 02:20:38;;;;;;;23.55;5.97;;;10.00;99.90;;;;;;5035503;28;20025;-64
2023/05/24 02:23:05;;;;;;;24.65;6.28;;;9.90;99.90;;;;;;5043608;28;20243;-65
2023/05/24 02:25:31;;;;;;;27.75;6.15;;;10.00;99.90;;;;;;5033192;28;20563;-62
2023/05/24 02:27:58;;;;;;;26.48;6.35;;;9.90;99.90;;;;;;5028157;28;20037;-64
2023/05/24 02:30:24;;;;;;;25.42;6.07;;;9.90;99.90;;;;;;5042972;28;20036;-64
2023/05/24 02:32:50;;;;;;;28.30;6.47;;;9.90;99.90;;;;;;5033647;28;20077;-64
2023/05/24 02:35:15;;;;;;;25.42;6.30;;;9.90;99.90;;;;;;5030582;28;20069;-61
2023/05/24 02:37:41;;;;;;;24.83;5.75;;;9.90;99.90;;;;;;5029209;28;20073;-61
2023/05/24 02:40:07;;;;;;;27.88;5.85;;;9.80;99.90;;;;;;5027961;28;20041;-62
2023/05/24 02:42:33;;;;;;;20.45;5.57;;;9.80;99.90;;;;;;5038591;28;20047;-62
2023/05/24 02:44:59;;;;;;;17.48;5.30;;;9.80;99.90;;;;;;5030934;28;20041;-62
2023/05/24 02:47:25;;;;;;;24.50;5.88;;;9.80;99.90;;;;;;5027317;28;20258;-64
2023/05/24 02:49:52;;;;;;;26.02;6.68;;;9.80;99.90;;;;;;5038111;28;20080;-62
2023/05/24 02:52:20;;;;;;;20.90;5.95;;;9.80;99.90;;;;;;5034579;28;20443;-64
2023/05/24 02:54:46;;;;;;;25.98;6.05;;;9.70;99.90;;;;;;5034346;28;20045;-64
2023/05/24 02:57:12;;;;;;;19.42;5.78;;;9.70;99.90;;;;;;5019603;28;20072;-64
2023/05/24 02:59:37;;;;;;;18.30;5.65;;;9.70;99.90;;;;;;5033871;28;20076;-63
2023/05/24 03:02:03;;;;;;;21.88;5.88;;;9.70;99.90;;;;;;5029419;28;20030;-64
2023/05/24 03:04:29;;;;;;;22.75;6.43;;;9.70;99.90;;;;;;5029781;28;20117;-64
2023/05/24 03:06:55;;;;;;;23.85;6.15;;;10.10;99.90;;;;;;5040456;28;20029;-64
2023/05/24 03:09:20;;;;;;;22.80;5.97;;;9.70;99.90;;;;;;5039865;28;20041;-64
2023/05/24 03:11:46;;;;;;;29.40;6.32;;;9.70;99.90;;;;;;5030401;28;20048;-64
2023/05/24 03:14:12;;;;;;;22.83;5.80;;;9.70;99.90;;;;;;5031834;28;20037;-62
2023/05/24 03:16:37;;;;;;;24.80;6.25;;;9.60;99.90;;;;;;5032329;28;20179;-65
2023/05/24 03:19:04;;;;;;;25.98;7.35;;;9.60;99.90;;;;;;5030009;28;20373;-64
2023/05/24 03:21:30;;;;;;;21.95;5.85;;;9.60;99.90;;;;;;5030477;28;20064;-64
2023/05/24 03:23:56;;;;;;;27.00;6.03;;;9.60;99.90;;;;;;5032233;28;20103;-61
2023/05/24 03:26:22;;;;;;;25.63;6.45;;;9.60;99.90;;;;;;5032868;28;20038;-62
2023/05/24 03:28:50;;;;;;;20.15;5.82;;;9.60;99.90;;;;;;5034787;28;20529;-64
2023/05/24 03:31:15;;;;;;;18.55;5.10;;;9.50;99.90;;;;;;5033764;28;20403;-64
2023/05/24 03:33:41;;;;;;;20.38;5.72;;;9.50;99.90;;;;;;5030900;28;20052;-64
2023/05/24 03:36:07;;;;;;;21.42;5.50;;;9.50;99.90;;;;;;5021335;28;20033;-62
2023/05/24 03:38:32;;;;;;;21.70;6.00;;;9.50;99.90;;;;;;5033728;28;20048;-64
2023/05/24 03:40:58;;;;;;;23.73;6.65;;;9.50;99.90;;;;;;5029887;28;20072;-65
2023/05/24 03:43:25;;;;;;;23.30;6.18;;;9.50;99.90;;;;;;5032257;28;20045;-64
2023/05/24 03:45:50;;;;;;;25.13;6.15;;;9.50;99.90;;;;;;5027713;28;20538;-64
2023/05/24 03:48:19;;;;;;;15.77;5.57;;;9.50;99.90;;;;;;5024399;28;20120;-65
2023/05/24 03:50:45;;;;;;;21.40;5.50;;;9.50;99.90;;;;;;5040706;28;20411;-61
2023/05/24 03:53:11;;;;;;;21.38;5.90;;;9.50;99.90;;;;;;5034994;28;20042;-63
2023/05/24 03:55:36;;;;;;;22.42;5.63;;;9.50;99.90;;;;;;5033064;28;20053;-64
2023/05/24 03:58:02;;;;;;;23.92;6.78;;;9.50;99.90;;;;;;5032557;28;20037;-65
2023/05/24 04:00:27;;;;;;;22.85;6.20;;;9.50;99.90;;;;;;5034920;28;20033;-64
2023/05/24 04:02:54;;;;;;;18.98;5.50;;;9.50;99.90;;;;;;5033986;28;20411;-62
2023/05/24 04:05:20;;;;;;;22.95;6.32;;;9.50;99.90;;;;;;5028126;28;20053;-64
2023/05/24 04:07:46;;;;;;;20.45;5.53;;;9.40;99.90;;;;;;5028983;28;20132;-64
2023/05/24 04:10:11;;;;;;;19.98;6.03;;;9.50;99.90;;;;;;5030085;28;20033;-63
2023/05/24 04:12:37;;;;;;;20.58;5.65;;;9.40;99.90;;;;;;5029516;28;20045;-64
2023/05/24 04:15:03;;;;;;;21.55;6.43;;;9.40;99.90;;;;;;5036400;28;20836;-64
2023/05/24 04:17:33;;;;;;;19.88;5.70;;;9.40;99.90;;;;;;5024743;28;20112;-65
2023/05/24 04:19:59;;;;;;;19.60;6.00;;;9.40;99.90;;;;;;5037424;28;20419;-64
2023/05/24 04:22:25;;;;;;;18.77;5.60;;;9.40;99.90;;;;;;5029447;28;20053;-64
2023/05/24 04:24:51;;;;;;;18.95;6.05;;;9.40;99.90;;;;;;5039592;28;20036;-64
2023/05/24 04:27:16;;;;;;;21.80;6.15;;;9.40;99.90;;;;;;5032583;28;20542;-64
2023/05/24 04:29:48;;;;;;;22.05;6.28;;;9.40;99.90;;;;;;5028556;28;20095;-64
2023/05/24 04:32:14;;;;;;;24.47;5.90;;;9.40;99.90;;;;;;5033710;28;20030;-61
2023/05/24 04:34:41;;;;;;;20.30;5.47;;;9.40;99.90;;;;;;5035039;28;20443;-64
2023/05/24 04:37:07;;;;;;;25.40;6.45;;;9.40;99.90;;;;;;5023837;28;20087;-64
2023/05/24 04:39:32;;;;;;;20.35;5.80;;;9.40;99.90;;;;;;5025030;28;20025;-64
2023/05/24 04:41:59;;;;;;;24.33;6.72;;;9.40;99.90;;;;;;5043435;28;20045;-61
2023/05/24 04:44:26;;;;;;;19.05;5.65;;;9.40;99.90;;;;;;5044553;28;20037;-63
2023/05/24 04:46:52;;;;;;;21.42;5.93;;;9.40;99.90;;;;;;5022660;28;20037;-63
2023/05/24 04:49:18;;;;;;;18.30;7.05;;;9.40;99.90;;;;;;5031172;28;20042;-63
2023/05/24 04:51:44;;;;;;;18.80;5.75;;;9.40;99.90;;;;;;5027595;28;20038;-63
2023/05/24 04:54:10;;;;;;;17.63;5.53;;;9.40;99.90;;;;;;5026023;28;20029;-63
2023/05/24 04:56:37;;;;;;;18.92;5.28;;;9.40;99.90;;;;;;5028388;28;20181;-63
2023/05/24 04:59:09;;;;;;;20.42;5.63;;;9.40;99.90;;;;;;5043737;28;20041;-63
2023/05/24 05:01:35;;;;;;;21.83;5.80;;;9.40;99.90;;;;;;5027891;28;20065;-63
2023/05/24 05:04:03;;;;;;;23.17;6.90;;;9.40;99.90;;;;;;5034616;28;20037;-63
2023/05/24 05:06:28;;;;;;;19.10;6.00;;;9.50;99.90;;;;;;5042109;28;20222;-63
2023/05/24 05:08:54;;;;;;;19.33;5.60;;;9.50;99.90;;;;;;5030069;28;20307;-63
2023/05/24 05:11:20;;;;;;;23.73;5.90;;;9.50;99.90;;;;;;5031808;28;20044;-63
2023/05/24 05:13:45;;;;;;;20.83;5.22;;;9.50;99.90;;;;;;5032796;28;20037;-63
2023/05/24 05:16:12;;;;;;;19.90;5.53;;;9.60;99.90;;;;;;5022486;28;20090;-63
2023/05/24 05:18:37;;;;;;;23.13;5.47;;;9.60;99.90;;;;;;5027415;28;20038;-62
2023/05/24 05:21:03;;;;;;;25.25;5.72;;;9.60;99.90;;;;;;5031529;28;20035;-63
2023/05/24 05:23:29;;;;;;;17.20;5.40;;;9.70;99.90;;;;;;5024221;28;20818;-64
2023/05/24 05:25:55;;;;;;;13.50;5.15;;;9.70;99.90;;;;;;5017866;28;20033;-63
2023/05/24 05:28:21;;;;;;;19.45;5.05;;;9.70;99.90;;;;;;5027908;28;20037;-63
2023/05/24 05:30:47;;;;;;;19.77;4.95;;;9.80;99.90;;;;;;5034639;28;20117;-63
2023/05/24 05:33:12;;;;;;;17.95;4.88;;;9.90;99.90;;;;;;5028640;28;20095;-63
2023/05/24 05:35:38;;;;;;;23.98;5.43;;;9.90;99.90;;;;;;5022925;28;20037;-63
2023/05/24 05:38:03;;;;;;;21.08;5.00;;;10.00;99.90;;;;;;5043323;28;20079;-63
2023/05/24 05:40:29;;;;;;;23.10;5.82;;;10.00;99.90;;;;;;5032252;28;20049;-63
2023/05/24 05:42:54;;;;;;;15.55;5.28;;;10.10;99.90;;;;;;5028904;28;20044;-63
2023/05/24 05:45:20;;;;;;;26.88;5.47;;;10.20;99.90;;;;;;5022089;28;20037;-63
2023/05/24 05:47:46;;;;;;;19.40;4.80;;;10.30;99.90;;;;;;5025448;28;20547;-63
2023/05/24 05:50:11;;;;;;;21.83;5.05;;;10.30;99.90;;;;;;5040537;28;20289;-63
2023/05/24 05:52:37;;;;;;;15.23;5.25;;;10.40;99.90;;;;;;5032911;28;20034;-63
2023/05/24 05:55:03;;;;;;;19.70;5.05;;;10.40;99.90;;;;;;5032225;28;20032;-63
2023/05/24 05:57:28;;;;;;;18.15;5.30;;;10.50;99.90;;;;;;5033974;28;20029;-63
2023/05/24 05:59:54;;;;;;;21.48;4.72;;;10.50;99.90;;;;;;5027594;28;20454;-63
2023/05/24 06:02:22;;;;;;;20.27;5.18;;;10.60;99.90;;;;;;5018558;28;20353;-63
2023/05/24 06:04:48;;;;;;;18.75;4.75;;;10.60;99.90;;;;;;5027028;28;20033;-63
2023/05/24 06:07:14;;;;;;;26.33;5.60;;;10.70;99.90;;;;;;5028397;28;20040;-63
2023/05/24 06:09:39;;;;;;;19.13;5.30;;;10.70;99.90;;;;;;5031465;28;20399;-63
2023/05/24 06:12:05;;;;;;;19.58;4.85;;;10.80;99.90;;;;;;5034736;28;20036;-63
2023/05/24 06:14:33;;;;;;;20.75;4.82;;;10.90;99.90;;;;;;5045197;28;20049;-63
2023/05/24 06:16:59;;;;;;;19.48;4.28;;;10.90;99.90;;;;;;5027253;28;20315;-63
2023/05/24 06:19:25;;;;;;;17.58;4.90;;;11.00;99.90;;;;;;5025192;28;20463;-63
2023/05/24 06:21:51;;;;;;;18.33;4.25;;;11.10;99.90;;;;;;5028198;28;20103;-63
2023/05/24 06:24:19;;;;;;;15.60;4.35;;;11.10;99.90;;;;;;5030804;28;20338;-63
2023/05/24 06:26:46;;;;;;;19.65;4.70;;;11.20;99.90;;;;;;5032982;22;20041;-61
2023/05/24 06:29:12;;;;;;;16.77;4.20;;;11.20;99.90;;;;;;5017826;28;20041;-61
2023/05/24 06:31:38;;;;;;;22.60;4.75;;;11.30;99.90;;;;;;5021585;28;20080;-61
2023/05/24 06:34:04;;;;;;;19.70;4.93;;;11.30;99.90;;;;;;5015791;28;20277;-61
2023/05/24 06:36:32;;;;;;;14.95;4.30;;;11.50;99.90;;;;;;5001941;28;20411;-61
2023/05/24 06:38:58;;;;;;;23.15;5.72;;;11.50;99.90;;;;;;4984893;28;21161;-61
2023/05/24 06:41:25;;;;;;;17.70;4.50;;;11.60;99.90;;;;;;5013902;28;20053;-61
2023/05/24 06:43:51;;;;;;;15.27;4.60;;;11.70;99.90;;;;;;5021143;28;20072;-61
2023/05/24 06:46:17;;;;;;;20.35;4.05;;;11.80;99.90;;;;;;5020751;28;20034;-61
2023/05/24 06:48:42;;;;;;;15.77;4.22;;;12.00;99.90;;;;;;5016832;28;20070;-61
2023/05/24 06:51:08;;;;;;;17.58;4.90;;;12.10;99.90;;;;;;5005430;28;20479;-61
2023/05/24 06:53:33;;;;;;;23.58;5.82;;;12.20;99.90;;;;;;5003558;28;20142;-61
2023/05/24 06:55:59;;;;;;;19.85;4.65;;;12.30;99.90;;;;;;5021890;28;20041;-61
2023/05/24 06:58:25;;;;;;;21.33;4.85;;;12.40;99.90;;;;;;5006133;28;20045;-61
2023/05/24 07:00:51;;;;;;;19.98;4.45;;;12.50;99.90;;;;;;4981980;28;20045;-61
2023/05/24 07:03:17;;;;;;;22.05;4.75;;;12.60;99.90;;;;;;4997830;28;20048;-61
2023/05/24 07:05:46;;;;;;;23.42;5.20;;;12.60;99.90;;;;;;5007699;28;20033;-61
2023/05/24 07:08:11;;;;;;;22.63;4.88;;;12.70;99.90;;;;;;5019257;28;20129;-61
2023/05/24 07:10:37;;;;;;;17.48;4.75;;;12.80;99.90;;;;;;5006179;28;20120;-61
2023/05/24 07:13:02;;;;;;;21.52;4.68;;;12.90;99.90;;;;;;5019546;28;20045;-61
2023/05/24 07:15:28;;;;;;;21.73;4.47;;;12.90;99.90;;;;;;5002784;28;20049;-61
2023/05/24 07:17:54;;;;;;;20.25;4.60;;;13.00;99.90;;;;;;5017577;28;20417;-61
2023/05/24 07:20:20;;;;;;;14.38;4.53;;;13.00;99.90;;;;;;5018005;28;20408;-62
2023/05/24 07:22:45;;;;;;;21.10;4.72;;;13.10;99.90;;;;;;4994018;28;20129;-61
2023/05/24 07:25:11;;;;;;;19.90;4.60;;;13.20;99.90;;;;;;5020053;28;20044;-61
2023/05/24 07:27:37;;;;;;;19.98;4.88;;;13.20;99.90;;;;;;4986723;28;20045;-62
2023/05/24 07:30:04;;;;;;;19.23;4.63;;;13.20;99.90;;;;;;5021381;28;20037;-62
2023/05/24 07:32:31;;;;;;;18.23;4.25;;;13.20;99.90;;;;;;4999306;28;20045;-62
2023/05/24 07:34:57;;;;;;;17.60;4.32;;;13.20;99.90;;;;;;5019808;28;20073;-61
2023/05/24 07:37:23;;;;;;;20.10;4.82;;;13.20;99.90;;;;;;5023217;28;20065;-61
2023/05/24 07:39:50;;;;;;;17.20;5.05;;;13.20;99.90;;;;;;5012875;28;20134;-62
2023/05/24 07:42:15;;;;;;;18.83;5.13;;;13.20;99.90;;;;;;5011370;28;20048;-62
2023/05/24 07:44:41;;;;;;;12.95;4.40;;;13.10;99.90;;;;;;5015316;28;20414;-62
2023/05/24 07:47:06;;;;;;;15.65;4.30;;;13.10;99.90;;;;;;4992606;28;20038;-62
2023/05/24 07:49:32;;;;;;;15.43;4.38;;;13.20;99.90;;;;;;5001689;28;20431;-62
2023/05/24 07:51:59;;;;;;;18.85;4.68;;;13.20;99.90;;;;;;5023457;28;20087;-62
2023/05/24 07:54:25;;;;;;;17.25;4.88;;;13.20;99.90;;;;;;5004916;28;20053;-62
2023/05/24 07:56:51;;;;;;;13.88;4.68;;;13.30;99.90;;;;;;5023848;28;20029;-62
2023/05/24 07:59:17;;;;;;;18.17;4.03;;;13.30;99.90;;;;;;5024264;28;20480;-62
2023/05/24 08:01:42;;;;;;;19.98;4.75;;;13.40;99.90;;;;;;5023573;28;20048;-62
2023/05/24 08:04:09;;;;;;;16.70;4.80;;;13.40;99.90;;;;;;5007604;28;20144;-62
2023/05/24 08:06:34;;;;;;;15.43;4.20;;;13.40;99.90;;;;;;5010046;28;20049;-62
2023/05/24 08:09:02;;;;;;;13.15;4.20;;;13.30;99.90;;;;;;4997350;28;20120;-62
2023/05/24 08:11:28;;;;;;;19.52;4.40;;;13.30;99.90;;;;;;5022586;28;20041;-62
2023/05/24 08:13:54;;;;;;;23.25;4.55;;;13.40;99.90;;;;;;5001354;28;20450;-62
2023/05/24 08:16:19;;;;;;;19.52;5.05;;;13.50;99.90;;;;;;5006743;28;20045;-62
2023/05/24 08:18:45;;;;;;;16.45;4.55;;;13.60;99.90;;;;;;5021636;28;20479;-62
2023/05/24 08:21:11;;;;;;;13.10;3.78;;;13.70;99.90;;;;;;5004709;28;20038;-62
2023/05/24 08:23:36;;;;;;;14.85;3.92;;;13.80;99.90;;;;;;5024603;28;20039;-62
2023/05/24 08:26:02;;;;;;;20.50;4.90;;;13.90;99.90;;;;;;5014565;28;20034;-62
2023/05/24 08:28:28;;;;;;;15.88;4.72;;;13.90;99.90;;;;;;5003517;28;20038;-62
2023/05/24 08:30:54;;;;;;;18.23;5.45;;;13.90;99.90;;;;;;5014978;28;20488;-62
2023/05/24 08:33:21;;;;;;;14.80;3.75;;;14.00;99.90;;;;;;5010702;28;20041;-62
2023/05/24 08:35:50;;;;;;;17.52;3.97;;;14.00;99.90;;;;;;5009448;28;20480;-62
2023/05/24 08:38:15;;;;;;;10.48;3.85;;;14.10;99.90;;;;;;5014433;28;20128;-62
2023/05/24 08:40:41;;;;;;;17.17;3.90;;;14.10;99.90;;;;;;5017068;28;20157;-62
2023/05/24 08:43:10;;;;;;;12.85;3.88;;;14.10;99.90;;;;;;5017682;28;20045;-62
2023/05/24 08:45:38;;;;;;;15.57;4.28;;;14.20;99.90;;;;;;5018911;28;20044;-62
2023/05/24 08:48:07;;;;;;;14.90;3.78;;;14.20;99.90;;;;;;4991940;28;20042;-63
2023/05/24 08:50:34;;;;;;;11.77;3.65;;;14.20;99.90;;;;;;5000270;28;20402;-63
2023/05/24 08:53:03;;;;;;;14.27;4.13;;;14.20;99.90;;;;;;5021343;28;20068;-63
2023/05/24 08:55:32;;;;;;;26.17;4.60;;;14.30;99.90;;;;;;5016632;28;20045;-63
2023/05/24 08:57:59;;;;;;;18.15;4.15;;;14.40;99.90;;;;;;5020213;28;20045;-63
2023/05/24 09:00:25;;;;;;;15.75;3.70;;;14.60;99.90;;;;;;4999704;28;20095;-63
2023/05/24 09:02:52;;;;;;;22.05;4.45;;;14.90;99.90;;;;;;5030179;28;20052;-63
2023/05/24 09:05:20;;;;;;;19.33;4.32;;;15.00;99.90;;;;;;5002299;28;20034;-63
2023/05/24 09:07:47;;;;;;;12.82;3.67;;;14.90;99.90;;;;;;5016660;28;20087;-63
2023/05/24 09:10:13;;;;;;;12.18;3.47;;;15.00;99.90;;;;;;5032236;28;20048;-63
2023/05/24 09:12:44;;;;;;;10.07;4.00;;;15.10;99.90;;;;;;4999893;28;20046;-63
2023/05/24 09:15:10;;;;;;;14.05;3.60;;;15.20;99.90;;;;;;5023444;28;20068;-63
2023/05/24 09:17:37;;;;;;;12.40;3.45;;;15.20;99.90;;;;;;5019750;28;20065;-63
2023/05/24 09:20:05;;;;;;;17.95;3.72;;;15.10;99.90;;;;;;5028527;28;20038;-63
2023/05/24 09:22:32;;;;;;;15.55;3.25;;;15.10;99.90;;;;;;5003441;28;20042;-63
2023/05/24 09:25:02;;;;;;;15.40;3.70;;;15.10;99.90;;;;;;5023608;28;20042;-64
2023/05/24 09:27:30;;;;;;;13.75;3.42;;;15.20;99.90;;;;;;5020833;28;20496;-63
2023/05/24 09:29:56;;;;;;;27.30;4.75;;;15.20;99.90;;;;;;4985107;28;20116;-63
2023/05/24 09:32:23;;;;;;;29.40;4.70;;;15.20;99.90;;;;;;5015033;28;20260;-63
2023/05/24 09:34:51;;;;;;;16.98;3.60;;;15.20;99.90;;;;;;4996207;28;20087;-63
2023/05/24 09:37:23;;;;;;;10.77;3.58;;;15.10;99.90;;;;;;4998009;28;20049;-63
2023/05/24 09:39:50;;;;;;;9.55;3.00;;;15.20;99.90;;;;;;5021170;28;20395;-63
2023/05/24 09:42:19;;;;;;;11.75;3.00;;;15.40;99.90;;;;;;5006643;28;20064;-63
2023/05/24 09:44:46;;;;;;;11.80;3.40;;;15.70;99.90;;;;;;5024030;28;20033;-63
2023/05/24 09:47:13;;;;;;;11.80;3.60;;;15.80;99.90;;;;;;5002495;28;20466;-63
2023/05/24 09:49:39;;;;;;;10.95;3.60;;;15.80;99.90;;;;;;5027528;28;20047;-63
2023/05/24 09:52:04;;;;;;;14.50;3.90;;;15.80;99.90;;;;;;4993710;28;20045;-63
2023/05/24 09:54:33;;;;;;;10.25;3.33;;;16.00;99.90;;;;;;5029025;28;20041;-63
2023/05/24 09:57:03;;;;;;;9.25;3.70;;;16.40;99.90;;;;;;5005367;28;20290;-64
2023/05/24 09:59:35;;;;;;;11.57;3.47;;;16.60;99.90;;;;;;5005462;28;20037;-63
2023/05/24 10:02:11;;;;;;;13.48;3.47;;;16.60;99.90;;;;;;5003379;28;20076;-63
2023/05/24 10:04:39;;;;;;;14.10;3.78;;;16.60;99.90;;;;;;5026864;28;20026;-64
2023/05/24 10:07:06;;;;;;;14.05;3.65;;;16.40;99.90;;;;;;4990471;28;20041;-63
2023/05/24 10:09:35;;;;;;;10.25;3.63;;;16.50;99.90;;;;;;5014969;28;20499;-64
2023/05/24 10:12:06;;;;;;;11.07;3.40;;;16.70;99.90;;;;;;5014899;28;20040;-63
2023/05/24 10:14:35;;;;;;;10.05;3.10;;;16.90;99.90;;;;;;5001725;28;20059;-64
2023/05/24 10:17:04;;;;;;;10.15;3.25;;;17.10;99.90;;;;;;5024694;28;20084;-64
2023/05/24 10:19:34;;;;;;;7.97;2.72;;;17.50;99.90;;;;;;5004443;28;20051;-63
2023/05/24 10:22:04;;;;;;;8.38;3.10;;;17.80;99.90;;;;;;5006375;28;20045;-64
2023/05/24 10:24:34;;;;;;;10.77;3.22;;;18.20;99.90;;;;;;5021396;28;20033;-64
2023/05/24 10:27:06;;;;;;;11.07;3.03;;;18.40;99.90;;;;;;4992809;28;20034;-64
2023/05/24 10:29:35;;;;;;;;;;;18.50;99.90;;;;;;5008663;28;20034;-64
2023/05/24 10:32:03;;;;;;;11.35;3.38;;;18.50;99.10;;;;;;5018147;28;19960;-63
2023/05/24 10:34:29;;;;;;;8.40;2.97;;;18.40;99.90;;;;;;5028980;28;20095;-64
2023/05/24 10:36:57;;;;;;;9.40;3.10;;;18.20;99.90;;;;;;4997151;28;20053;-63
2023/05/24 10:39:24;;;;;;;8.60;2.78;;;18.00;99.90;;;;;;5021309;28;20479;-63
2023/05/24 10:41:50;;;;;;;11.68;3.13;;;17.90;99.90;;;;;;5023717;28;20380;-64
2023/05/24 10:44:18;;;;;;;8.68;2.92;;;17.60;99.90;;;;;;5018346;28;20044;-64
2023/05/24 10:47:07;;;;;;;7.05;2.95;;;17.60;99.90;;;;;;5024814;28;20041;-64
2023/05/24 10:49:32;;;;;;;12.15;3.22;;;17.70;99.90;;;;;;5010475;28;20049;-64
2023/05/24 10:52:07;;;;;;;8.07;2.95;;;17.90;99.90;;;;;;4998148;28;20038;-64
2023/05/24 10:54:32;;;;;;;9.65;3.05;;;18.30;99.90;;;;;;5001043;28;20121;-64
2023/05/24 10:57:03;;;;;;;9.77;2.97;;;18.60;99.90;;;;;;4986760;28;20137;-64
2023/05/24 10:59:36;;;;;;;8.10;2.77;;;18.90;99.90;;;;;;5007053;28;20124;-64
2023/05/24 11:02:02;;;;;;;7.57;2.83;;;19.30;99.60;;;;;;5020700;28;20511;-64
2023/05/24 11:04:39;;;;;;;9.27;3.10;;;19.30;98.90;;;;;;5003206;28;20037;-64
2023/05/24 11:07:08;;;;;;;9.52;3.10;;;19.20;98.50;;;;;;5020725;28;20087;-64
2023/05/24 11:09:35;;;;;;;10.77;3.00;;;18.90;98.80;;;;;;5026980;28;20038;-64
2023/05/24 11:12:07;;;;;;;5.45;2.67;;;18.70;98.60;;;;;;5018775;28;20112;-64
2023/05/24 11:14:38;;;;;;;7.68;2.35;;;18.40;98.50;;;;;;4999313;28;20500;-64
2023/05/24 11:17:04;;;;;;;10.85;3.00;;;18.10;98.90;;;;;;5016835;28;20116;-64
2023/05/24 11:19:43;;;;;;;8.30;2.80;;;18.00;98.90;;;;;;4985078;28;20053;-64
2023/05/24 11:22:12;;;;;;;10.65;3.35;;;17.80;98.90;;;;;;4992716;28;20045;-64
2023/05/24 11:24:40;;;;;;;7.93;2.60;;;17.70;99.10;;;;;;5021332;28;20034;-63
2023/05/24 11:27:06;;;;;;;9.45;3.10;;;17.60;99.10;;;;;;5020050;28;20034;-64
2023/05/24 11:29:38;;;;;;;9.52;3.22;;;17.40;98.90;;;;;;5021374;28;20034;-63
2023/05/24 11:32:04;;;;;;;6.88;3.03;;;17.20;99.00;;;;;;5019158;28;20045;-63
2023/05/24 11:34:31;;;;;;;6.95;2.60;;;17.10;99.10;;;;;;5028799;28;20052;-63
2023/05/24 11:36:58;;;;;;;8.55;2.97;;;17.00;99.40;;;;;;4995857;28;20503;-63
2023/05/24 11:39:27;;;;;;;8.90;3.33;;;16.90;99.60;;;;;;5027695;28;20041;-63
2023/05/24 11:41:53;;;;;;;8.35;3.00;;;16.70;99.70;;;;;;5008737;28;20042;-63
2023/05/24 11:44:18;;;;;;;8.10;2.80;;;16.60;99.90;;;;;;5018625;28;20508;-61
2023/05/24 11:46:44;;;;;;;6.80;2.85;;;16.80;99.90;;;;;;5004495;28;20096;-62
2023/05/24 11:49:15;;;;;;;8.85;2.78;;;17.10;99.90;;;;;;5020314;28;20504;-62
2023/05/24 11:51:41;;;;;;;9.23;3.00;;;17.30;99.60;;;;;;5021050;28;20499;-64
2023/05/24 11:54:06;;;;;;;8.25;2.85;;;17.30;99.30;;;;;;5018401;28;20459;-67
2023/05/24 11:56:32;;;;;;;8.25;2.90;;;17.20;98.90;;;;;;5010064;28;20037;-64
2023/05/24 11:59:21;;;;;;;6.68;2.45;;;17.10;99.10;;;;;;5025292;28;20109;-61
2023/05/24 12:01:46;;;;;;;8.93;3.05;;;17.10;99.40;;;;;;4999124;28;20491;-66
2023/05/24 12:04:12;;;;;;;9.95;3.25;;;17.00;99.70;;;;;;5025549;28;20096;-61
2023/05/24 12:06:39;;;;;;;9.15;3.17;;;17.00;99.60;;;;;;5004746;28;20037;-61
2023/05/24 12:09:12;;;;;;;4.50;2.38;;;17.00;99.40;;;;;;5016384;28;20103;-64
2023/05/24 12:11:49;;;;;;;9.00;2.63;;;17.00;99.40;;;;;;5002870;28;20392;-61
2023/05/24 12:14:29;;;;;;;7.90;2.67;;;17.10;99.20;;;;;;5012134;28;20097;-66
2023/05/24 12:16:55;;;;;;;4.65;2.40;;;17.10;99.30;;;;;;4998799;28;20133;-63
2023/05/24 12:19:24;;;;;;;7.30;2.85;;;17.00;99.50;;;;;;5025335;28;20087;-62
2023/05/24 12:21:54;;;;;;;7.30;2.67;;;17.00;99.50;;;;;;5009835;28;20050;-61
2023/05/24 12:24:22;;;;;;;8.35;2.90;;;17.00;99.30;;;;;;4987086;28;20037;-61
2023/05/24 12:26:47;;;;;;;8.52;2.75;;;16.90;99.20;;;;;;5018317;23;20495;-62
2023/05/24 12:29:14;;;;;;;6.47;3.00;;;16.80;99.20;;;;;;5024635;28;20042;-62
2023/05/24 12:31:41;;;;;;;8.75;2.95;;;16.80;99.20;;;;;;5025271;28;20047;-63
2023/05/24 12:34:11;;;;;;;10.38;2.83;;;16.70;99.10;;;;;;5024844;28;20045;-62
2023/05/24 12:36:37;;;;;;;6.70;2.55;;;16.60;99.10;;;;;;5048123;28;20199;-63
2023/05/24 12:39:21;;;;;;;7.95;2.80;;;16.60;99.30;;;;;;5050910;28;20041;-62
2023/05/24 12:41:51;;;;;;;8.80;2.60;;;16.60;99.30;;;;;;5051146;28;20048;-64